createdAt,value
2022-11-13T00:00:43.471Z,14.27
2022-11-13T00:03:37.074Z,14.48
2022-11-13T00:06:29.019Z,14.63
2022-11-13T00:09:20.408Z,13.55
2022-11-13T00:12:11.974Z,13.82
2022-11-13T00:15:05.178Z,14.25
2022-11-13T00:20:51.007Z,15.18
2022-11-13T00:23:42.476Z,14.45
2022-11-13T00:26:33.709Z,14.73
2022-11-13T00:29:26.023Z,14.98
2022-11-13T00:32:20.530Z,15.27
2022-11-13T00:35:12.298Z,15.82
2022-11-13T00:38:03.718Z,14.98
2022-11-13T00:40:55.121Z,16.38
2022-11-13T00:43:46.812Z,17.92
2022-11-13T00:46:37.989Z,16.42
2022-11-13T00:49:31.014Z,18.27
2022-11-13T00:52:22.675Z,16.60
2022-11-13T00:55:14.175Z,16.73
2022-11-13T00:58:08.076Z,19.15
2022-11-13T01:01:05.698Z,17.38
2022-11-13T01:03:58.398Z,20.10
2022-11-13T01:06:52.915Z,18.85
2022-11-13T01:09:46.154Z,17.50
2022-11-13T01:12:38.213Z,18.88
2022-11-13T01:15:30.410Z,18.35
2022-11-13T01:18:22.056Z,19.55
2022-11-13T01:21:16.571Z,17.92
2022-11-13T01:24:11.928Z,18.75
2022-11-13T01:27:03.848Z,18.55
2022-11-13T01:29:58.246Z,18.50
2022-11-13T01:32:49.626Z,17.40
2022-11-13T01:35:42.844Z,18.13
2022-11-13T01:38:36.733Z,18.67
2022-11-13T01:41:31.833Z,17.88
2022-11-13T01:44:23.405Z,18.67
2022-11-13T01:47:15.250Z,17.92
2022-11-13T01:50:07.489Z,18.63
2022-11-13T01:52:59.124Z,17.57
2022-11-13T01:55:51.262Z,18.58
2022-11-13T01:58:47.558Z,18.00
2022-11-13T02:01:38.887Z,18.25
2022-11-13T02:04:31.445Z,19.27
2022-11-13T02:07:23.380Z,19.20
2022-11-13T02:10:14.977Z,17.77
2022-11-13T02:13:06.803Z,18.83
2022-11-13T02:16:00.079Z,18.90
2022-11-13T02:21:54.194Z,18.90
2022-11-13T02:24:52.252Z,17.58
2022-11-13T02:27:48.284Z,17.73
2022-11-13T02:30:39.861Z,17.63
2022-11-13T02:33:34.082Z,17.15
2022-11-13T02:36:31.760Z,16.23
2022-11-13T02:39:24.922Z,18.35
2022-11-13T02:45:09.587Z,18.35
2022-11-13T02:48:01.586Z,18.80
2022-11-13T02:50:53.559Z,18.30
2022-11-13T02:53:48.423Z,17.48
2022-11-13T02:56:39.845Z,16.98
2022-11-13T02:59:32.126Z,18.35
2022-11-13T03:02:23.914Z,18.40
2022-11-13T03:05:15.638Z,16.83
2022-11-13T03:08:07.544Z,17.05
2022-11-13T03:10:59.191Z,16.63
2022-11-13T03:13:50.449Z,16.17
2022-11-13T03:16:43.446Z,16.48
2022-11-13T03:19:36.445Z,16.92
2022-11-13T03:22:28.123Z,16.30
2022-11-13T03:25:19.571Z,15.55
2022-11-13T03:28:11.589Z,15.80
2022-11-13T03:31:03.196Z,17.02
2022-11-13T03:33:56.633Z,14.98
2022-11-13T03:36:48.867Z,12.23
2022-11-13T03:39:40.346Z,16.05
2022-11-13T03:42:36.213Z,16.15
2022-11-13T03:45:27.976Z,15.18
2022-11-13T03:48:19.354Z,15.18
2022-11-13T03:51:12.504Z,14.88
2022-11-13T03:54:04.180Z,13.73
2022-11-13T03:56:55.304Z,14.77
2022-11-13T03:59:47.012Z,14.27
2022-11-13T04:02:38.748Z,13.57
2022-11-13T04:05:30.905Z,14.38
2022-11-13T04:08:23.842Z,12.93
2022-11-13T04:11:15.491Z,12.63
2022-11-13T04:14:06.654Z,13.73
2022-11-13T04:16:58.309Z,14.10
2022-11-13T04:19:49.461Z,13.80
2022-11-13T04:22:40.965Z,11.85
2022-11-13T04:25:34.267Z,14.18
2022-11-13T04:28:26.081Z,12.02
2022-11-13T04:31:17.893Z,12.65
2022-11-13T04:34:09.821Z,13.07
2022-11-13T04:37:04.280Z,12.10
2022-11-13T04:39:56.355Z,12.27
2022-11-13T04:42:54.420Z,11.95
2022-11-13T04:45:46.096Z,12.27
2022-11-13T04:48:37.629Z,12.55
2022-11-13T04:51:28.858Z,11.68
2022-11-13T04:54:24.309Z,12.45
2022-11-13T04:57:18.851Z,11.32
2022-11-13T05:00:12.915Z,11.95
2022-11-13T05:03:04.453Z,11.45
2022-11-13T05:06:03.147Z,11.02
2022-11-13T05:08:54.867Z,11.40
2022-11-13T05:11:46.217Z,11.15
2022-11-13T05:14:38.435Z,11.23
2022-11-13T05:17:31.636Z,11.15
2022-11-13T05:20:23.286Z,11.48
2022-11-13T05:23:14.987Z,10.98
2022-11-13T05:26:08.899Z,10.98
2022-11-13T05:29:01.324Z,10.40
2022-11-13T05:31:52.625Z,10.43
2022-11-13T05:34:45.446Z,10.65
2022-11-13T05:37:37.112Z,9.73
2022-11-13T05:40:31.090Z,11.48
2022-11-13T05:43:26.364Z,11.00
2022-11-13T05:46:22.322Z,10.82
2022-11-13T05:49:13.617Z,10.95
2022-11-13T05:52:06.357Z,10.43
2022-11-13T05:54:58.051Z,10.98
2022-11-13T05:57:49.649Z,11.27
2022-11-13T06:00:41.439Z,10.55
2022-11-13T06:03:33.351Z,10.98
2022-11-13T06:06:26.833Z,9.98
2022-11-13T06:09:22.570Z,10.32
2022-11-13T06:12:13.740Z,11.02
2022-11-13T06:15:05.837Z,10.50
2022-11-13T06:17:56.996Z,10.15
2022-11-13T06:20:48.467Z,10.38
2022-11-13T06:23:41.607Z,10.27
2022-11-13T06:26:36.334Z,10.30
2022-11-13T06:29:28.598Z,10.15
2022-11-13T06:32:19.955Z,11.35
2022-11-13T06:35:11.486Z,9.80
2022-11-13T06:38:03.087Z,10.10
2022-11-13T06:41:00.158Z,10.70
2022-11-13T06:43:55.640Z,10.18
2022-11-13T06:46:49.549Z,9.43
2022-11-13T06:49:41.530Z,9.57
2022-11-13T06:52:33.657Z,9.55
2022-11-13T06:55:26.113Z,9.35
2022-11-13T06:58:17.842Z,10.05
2022-11-13T07:01:12.039Z,9.23
2022-11-13T07:04:04.735Z,8.57
2022-11-13T07:06:56.026Z,10.05
2022-11-13T07:09:47.491Z,9.50
2022-11-13T07:12:38.929Z,9.45
2022-11-13T07:15:30.228Z,9.25
2022-11-13T07:18:24.231Z,8.95
2022-11-13T07:21:15.563Z,8.52
2022-11-13T07:24:10.426Z,8.98
2022-11-13T07:27:04.057Z,8.43
2022-11-13T07:29:59.488Z,9.57
2022-11-13T07:32:54.161Z,10.07
2022-11-13T07:35:46.657Z,8.55
2022-11-13T07:38:37.926Z,9.43
2022-11-13T07:41:29.303Z,9.05
2022-11-13T07:44:47.748Z,9.20
2022-11-13T07:47:31.864Z,8.38
2022-11-13T07:50:33.028Z,9.93
2022-11-13T07:53:25.841Z,9.52
2022-11-13T07:56:22.762Z,9.57
2022-11-13T07:59:14.881Z,9.43
2022-11-13T08:02:07.402Z,9.45
2022-11-13T08:04:58.787Z,9.48
2022-11-13T08:07:51.519Z,9.43
2022-11-13T08:10:46.045Z,7.20
2022-11-13T08:13:38.488Z,10.05
2022-11-13T08:16:29.664Z,10.23
2022-11-13T08:19:21.076Z,9.65
2022-11-13T08:22:12.010Z,10.30
2022-11-13T08:25:03.236Z,9.43
2022-11-13T08:27:56.027Z,9.73
2022-11-13T08:30:47.599Z,10.45
2022-11-13T08:33:38.916Z,9.95
2022-11-13T08:36:30.876Z,9.05
2022-11-13T08:39:22.291Z,10.63
2022-11-13T08:42:13.452Z,10.35
2022-11-13T08:45:06.790Z,10.60
2022-11-13T08:48:01.239Z,12.25
2022-11-13T08:50:53.611Z,10.70
2022-11-13T08:53:45.280Z,9.77
2022-11-13T08:56:36.377Z,12.05
2022-11-13T08:59:28.086Z,10.10
2022-11-13T09:02:20.863Z,10.82
2022-11-13T09:05:12.561Z,10.63
2022-11-13T09:08:04.136Z,10.95
2022-11-13T09:10:55.045Z,11.18
2022-11-13T09:13:50.663Z,11.05
2022-11-13T09:16:44.605Z,10.35
2022-11-13T09:19:37.246Z,10.77
2022-11-13T09:22:29.200Z,10.65
2022-11-13T09:25:20.570Z,10.38
2022-11-13T09:28:11.759Z,11.55
2022-11-13T09:31:05.222Z,12.10
2022-11-13T09:33:57.655Z,12.48
2022-11-13T09:36:50.282Z,11.70
2022-11-13T09:39:41.623Z,12.47
2022-11-13T09:42:42.326Z,12.85
2022-11-13T09:45:36.026Z,13.25
2022-11-13T09:51:25.906Z,13.77
2022-11-13T09:54:19.142Z,14.60
2022-11-13T09:57:25.770Z,14.30
2022-11-13T10:00:20.272Z,14.00
2022-11-13T10:03:59.353Z,14.18
2022-11-13T10:06:50.622Z,15.52
2022-11-13T10:09:55.314Z,15.15
2022-11-13T10:12:49.726Z,14.95
2022-11-13T10:15:44.134Z,15.45
2022-11-13T10:18:38.919Z,15.68
2022-11-13T10:21:36.407Z,15.93
2022-11-13T10:24:31.172Z,14.82
2022-11-13T10:27:25.439Z,15.88
2022-11-13T10:30:44.140Z,16.05
2022-11-13T10:33:35.766Z,16.17
2022-11-13T10:36:36.512Z,14.20
2022-11-13T10:39:29.314Z,16.25
2022-11-13T10:42:28.513Z,16.98
2022-11-13T10:45:23.016Z,14.77
2022-11-13T10:48:32.813Z,14.48
2022-11-13T10:51:26.939Z,16.73
2022-11-13T10:54:25.207Z,16.08
2022-11-13T10:57:28.962Z,16.25
2022-11-13T11:00:23.380Z,15.50
2022-11-13T11:03:15.945Z,17.88
2022-11-13T11:06:08.127Z,16.30
2022-11-13T11:09:07.370Z,16.77
2022-11-13T11:12:18.982Z,15.27
2022-11-13T11:15:22.250Z,14.27
2022-11-13T11:18:25.853Z,10.50
2022-11-13T11:21:22.304Z,13.73
2022-11-13T11:24:18.310Z,13.82
2022-11-13T11:27:17.894Z,14.95
2022-11-13T11:30:19.652Z,13.95
2022-11-13T11:33:16.636Z,15.70
2022-11-13T11:36:16.935Z,16.77
2022-11-13T11:39:26.926Z,16.08
2022-11-13T11:42:28.883Z,14.45
2022-11-13T11:45:27.825Z,13.98
2022-11-13T11:48:22.704Z,14.65
2022-11-13T11:51:22.275Z,14.82
2022-11-13T11:54:27.597Z,16.13
2022-11-13T11:57:40.368Z,13.20
2022-11-13T12:00:34.276Z,12.68
2022-11-13T12:03:47.810Z,12.38
2022-11-13T12:06:50.447Z,12.45
2022-11-13T12:09:48.434Z,11.98
2022-11-13T12:12:56.285Z,12.75
2022-11-13T12:15:58.806Z,11.50
2022-11-13T12:19:00.689Z,11.52
2022-11-13T12:22:06.218Z,11.13
2022-11-13T12:25:10.177Z,11.70
2022-11-13T12:28:12.951Z,11.73
2022-11-13T12:31:15.522Z,11.98
2022-11-13T12:34:17.378Z,11.95
2022-11-13T12:37:15.529Z,11.15
2022-11-13T12:40:14.014Z,13.32
2022-11-13T12:43:33.663Z,11.73
2022-11-13T12:46:35.817Z,11.65
2022-11-13T12:49:30.766Z,11.10
2022-11-13T12:52:24.543Z,11.38
2022-11-13T12:55:28.852Z,10.85
2022-11-13T12:58:22.835Z,11.25
2022-11-13T13:01:18.905Z,11.15
2022-11-13T13:04:41.386Z,12.02
2022-11-13T13:08:44.080Z,12.40
2022-11-13T13:11:44.882Z,11.02
2022-11-13T13:14:54.029Z,11.95
2022-11-13T13:18:08.278Z,12.00
2022-11-13T13:21:06.253Z,10.68
2022-11-13T13:24:09.880Z,10.93
2022-11-13T13:27:41.300Z,10.65
2022-11-13T13:30:49.548Z,10.05
2022-11-13T13:38:05.867Z,10.48
2022-11-13T13:42:05.723Z,9.00
2022-11-13T13:59:45.782Z,8.35
2022-11-13T14:03:29.265Z,9.52
2022-11-13T14:06:30.182Z,9.48
2022-11-13T14:09:23.373Z,8.32
2022-11-13T14:16:17.078Z,10.38
2022-11-13T14:20:13.263Z,10.25
2022-11-13T14:23:16.473Z,10.50
2022-11-13T14:26:11.075Z,9.25
2022-11-13T14:29:03.868Z,10.18
2022-11-13T14:31:55.643Z,9.15
2022-11-13T14:34:49.412Z,9.43
2022-11-13T14:41:39.877Z,8.77
2022-11-13T14:44:32.769Z,8.68
2022-11-13T14:47:40.764Z,9.18
2022-11-13T14:51:47.386Z,9.00
2022-11-13T14:54:46.975Z,10.10
2022-11-13T14:57:51.285Z,11.20
2022-11-13T15:01:36.770Z,10.60
2022-11-13T15:07:48.657Z,10.73
2022-11-13T15:10:40.510Z,10.73
2022-11-13T15:13:33.121Z,10.68
2022-11-13T15:16:28.936Z,10.20
2022-11-13T15:19:26.764Z,9.27
2022-11-13T15:23:00.344Z,10.07
2022-11-13T15:25:51.860Z,10.00
2022-11-13T15:28:45.281Z,8.63
2022-11-13T15:31:39.576Z,10.68
2022-11-13T15:34:31.065Z,9.68
2022-11-13T15:37:22.564Z,9.88
2022-11-13T15:40:15.157Z,8.55
2022-11-13T15:43:16.422Z,10.52
2022-11-13T15:46:26.838Z,9.73
2022-11-13T15:49:18.108Z,9.57
2022-11-13T15:52:10.742Z,8.40
2022-11-13T15:55:03.150Z,9.33
2022-11-13T15:58:05.194Z,13.00
2022-11-13T16:01:06.338Z,9.75
2022-11-13T16:04:14.091Z,9.30
2022-11-13T16:07:25.227Z,10.48
2022-11-13T16:10:50.297Z,9.55
2022-11-13T16:13:42.108Z,10.02
2022-11-13T16:16:38.314Z,8.73
2022-11-13T16:19:31.935Z,9.55
2022-11-13T16:22:24.647Z,8.45
2022-11-13T16:25:18.892Z,8.65
2022-11-13T16:28:16.393Z,9.77
2022-11-13T16:31:08.346Z,8.25
2022-11-13T16:33:59.875Z,9.13
2022-11-13T16:36:53.388Z,8.82
2022-11-13T16:39:45.565Z,7.95
2022-11-13T16:42:37.223Z,9.20
2022-11-13T16:45:29.150Z,7.57
2022-11-13T16:48:20.675Z,7.97
2022-11-13T16:51:12.204Z,8.02
2022-11-13T16:54:12.487Z,6.70
2022-11-13T16:57:06.362Z,7.22
2022-11-13T16:59:57.614Z,7.80
2022-11-13T17:02:53.299Z,6.60
2022-11-13T17:05:44.780Z,7.03
2022-11-13T17:08:36.055Z,7.38
2022-11-13T17:11:33.058Z,6.95
2022-11-13T17:14:24.827Z,6.85
2022-11-13T17:17:16.182Z,6.05
2022-11-13T17:20:11.744Z,6.72
2022-11-13T17:23:02.982Z,6.00
2022-11-13T17:25:54.387Z,6.72
2022-11-13T17:28:47.173Z,7.03
2022-11-13T17:31:38.310Z,6.93
2022-11-13T17:34:29.932Z,8.07
2022-11-13T17:37:25.335Z,7.72
2022-11-13T17:40:17.467Z,8.30
2022-11-13T17:43:10.411Z,6.88
2022-11-13T17:46:05.592Z,8.50
2022-11-13T17:48:57.193Z,7.32
2022-11-13T17:51:51.268Z,7.93
2022-11-13T17:54:44.045Z,8.88
2022-11-13T17:57:40.592Z,7.82
2022-11-13T18:00:32.502Z,8.32
2022-11-13T18:03:25.227Z,9.00
2022-11-13T18:06:20.050Z,8.30
2022-11-13T18:09:12.135Z,8.63
2022-11-13T18:12:04.118Z,8.10
2022-11-13T18:14:58.139Z,7.07
2022-11-13T18:17:49.517Z,8.27
2022-11-13T18:20:42.940Z,7.40
2022-11-13T18:23:34.481Z,7.50
2022-11-13T18:26:25.608Z,8.43
2022-11-13T18:29:17.707Z,8.07
2022-11-13T18:32:12.352Z,7.80
2022-11-13T18:35:05.159Z,7.47
2022-11-13T18:38:00.830Z,7.90
2022-11-13T18:40:53.073Z,8.05
2022-11-13T18:43:45.271Z,7.55
2022-11-13T18:47:12.579Z,8.65
2022-11-13T18:50:03.999Z,8.25
2022-11-13T18:52:56.513Z,8.25
2022-11-13T18:56:21.695Z,9.35
2022-11-13T19:00:51.096Z,9.13
2022-11-13T19:04:08.155Z,8.95
2022-11-13T19:07:19.033Z,7.93
2022-11-13T19:10:18.036Z,8.45
2022-11-13T19:13:11.894Z,9.20
2022-11-13T19:19:47.714Z,8.63
2022-11-13T19:22:41.899Z,8.10
2022-11-13T19:25:35.174Z,9.18
2022-11-13T19:28:32.597Z,9.18
2022-11-13T19:35:22.966Z,8.98
2022-11-13T19:38:29.224Z,9.50
2022-11-13T19:41:29.455Z,8.10
2022-11-13T19:44:21.598Z,9.57
2022-11-13T19:47:13.428Z,9.20
2022-11-13T19:50:06.351Z,9.63
2022-11-13T19:53:02.249Z,9.47
2022-11-13T19:55:59.573Z,9.25
2022-11-13T19:58:52.853Z,9.13
2022-11-13T20:04:36.266Z,9.77
2022-11-13T20:07:31.296Z,9.07
2022-11-13T20:10:24.279Z,9.73
2022-11-13T20:13:20.812Z,9.52
2022-11-13T20:16:22.402Z,10.02
2022-11-13T20:19:23.687Z,9.80
2022-11-13T20:22:15.718Z,9.75
2022-11-13T20:25:12.878Z,9.32
2022-11-13T20:28:10.300Z,9.35
2022-11-13T20:31:11.713Z,8.98
2022-11-13T20:34:04.011Z,9.55
2022-11-13T20:36:58.461Z,10.32
2022-11-13T20:39:49.930Z,9.52
2022-11-13T20:42:41.671Z,9.95
2022-11-13T20:45:36.503Z,9.48
2022-11-13T20:48:30.701Z,9.77
2022-11-13T20:51:24.627Z,10.23
2022-11-13T20:54:16.257Z,10.32
2022-11-13T20:57:09.338Z,8.95
2022-11-13T21:00:00.884Z,10.13
2022-11-13T21:02:54.490Z,9.57
2022-11-13T21:05:47.256Z,8.82
2022-11-13T21:08:43.573Z,10.85
2022-11-13T21:11:35.747Z,9.55
2022-11-13T21:14:27.573Z,9.88
2022-11-13T21:17:19.245Z,9.13
2022-11-13T21:20:21.039Z,9.25
2022-11-13T21:23:19.362Z,8.80
2022-11-13T21:26:11.238Z,8.70
2022-11-13T21:29:02.983Z,8.80
2022-11-13T21:31:54.888Z,10.00
2022-11-13T21:34:47.245Z,9.00
2022-11-13T21:37:39.856Z,8.70
2022-11-13T21:40:31.271Z,10.30
2022-11-13T21:43:22.652Z,8.70
2022-11-13T21:46:15.067Z,9.98
2022-11-13T21:49:09.680Z,8.95
2022-11-13T21:52:00.879Z,7.90
2022-11-13T21:54:53.829Z,7.85
2022-11-13T21:57:45.165Z,7.88
2022-11-13T22:00:37.043Z,8.60
2022-11-13T22:03:29.421Z,8.02
2022-11-13T22:06:23.168Z,8.57
2022-11-13T22:09:18.923Z,7.78
2022-11-13T22:12:14.318Z,7.78
2022-11-13T22:15:08.999Z,9.00
2022-11-13T22:18:03.771Z,9.00
2022-11-13T22:21:00.167Z,7.15
2022-11-13T22:23:51.711Z,8.13
2022-11-13T22:26:46.060Z,8.15
2022-11-13T22:29:38.866Z,8.05
2022-11-13T22:32:30.614Z,8.00
2022-11-13T22:35:23.514Z,7.63
2022-11-13T22:38:15.383Z,7.85
2022-11-13T22:41:12.825Z,9.00
2022-11-13T22:44:06.926Z,8.20
2022-11-13T22:46:59.570Z,7.47
2022-11-13T22:49:51.461Z,8.80
2022-11-13T22:52:42.467Z,8.98
2022-11-13T22:55:34.547Z,8.13
2022-11-13T22:58:25.980Z,7.25
2022-11-13T23:01:19.351Z,7.78
2022-11-13T23:04:15.183Z,7.75
2022-11-13T23:07:06.720Z,7.75
2022-11-13T23:09:58.104Z,9.60
2022-11-13T23:12:51.472Z,8.20
2022-11-13T23:15:43.129Z,8.30
2022-11-13T23:18:34.912Z,8.00
2022-11-13T23:21:28.586Z,8.73
2022-11-13T23:24:19.884Z,7.95
2022-11-13T23:27:11.503Z,8.38
2022-11-13T23:30:07.432Z,8.88
2022-11-13T23:32:58.899Z,7.72
2022-11-13T23:35:50.954Z,8.43
2022-11-13T23:38:43.920Z,9.13
2022-11-13T23:41:35.545Z,8.43
2022-11-13T23:44:27.053Z,8.27
2022-11-13T23:47:21.187Z,8.63
2022-11-13T23:50:12.346Z,8.00
2022-11-13T23:53:05.463Z,8.25
2022-11-13T23:55:58.357Z,8.60
2022-11-13T23:58:52.709Z,9.27
